sensor_id;sensor_type;location;lat;lon;timestamp;pressure;altitude;pressure_sealevel;temperature;humidity
11856;BME280;5987;53.140;8.904;2022-11-15T00:02:42;101061.81;;;6.21;100.00
11856;BME280;5987;53.140;8.904;2022-11-15T00:05:46;101062.78;;;6.15;100.00
11856;BME280;5987;53.140;8.904;2022-11-15T00:08:50;101050.66;;;6.11;100.00
11856;BME280;5987;53.140;8.904;2022-11-15T00:11:53;101043.88;;;6.01;100.00
11856;BME280;5987;53.140;8.904;2022-11-15T00:14:57;101061.28;;;5.97;100.00
11856;BME280;5987;53.140;8.904;2022-11-15T00:18:02;101050.84;;;5.96;100.00
11856;BME280;5987;53.140;8.904;2022-11-15T00:21:10;101050.97;;;5.88;100.00
11856;BME280;5987;53.140;8.904;2022-11-15T00:24:14;101050.09;;;5.88;100.00
11856;BME280;5987;53.140;8.904;2022-11-15T00:27:18;101060.50;;;5.89;100.00
11856;BME280;5987;53.140;8.904;2022-11-15T00:30:21;101061.53;;;5.77;100.00
11856;BME280;5987;53.140;8.904;2022-11-15T00:33:26;101062.44;;;5.75;100.00
11856;BME280;5987;53.140;8.904;2022-11-15T00:36:33;101065.94;;;5.71;100.00
11856;BME280;5987;53.140;8.904;2022-11-15T00:39:37;101066.09;;;5.58;100.00
11856;BME280;5987;53.140;8.904;2022-11-15T00:42:41;101066.16;;;5.55;100.00
11856;BME280;5987;53.140;8.904;2022-11-15T00:45:45;101071.50;;;5.43;100.00
11856;BME280;5987;53.140;8.904;2022-11-15T00:48:50;101077.59;;;5.42;100.00
11856;BME280;5987;53.140;8.904;2022-11-15T00:51:53;101076.84;;;5.32;100.00
11856;BME280;5987;53.140;8.904;2022-11-15T00:54:57;101082.03;;;5.33;100.00
11856;BME280;5987;53.140;8.904;2022-11-15T00:58:00;101084.72;;;5.27;100.00
11856;BME280;5987;53.140;8.904;2022-11-15T01:01:09;101073.41;;;5.28;100.00
11856;BME280;5987;53.140;8.904;2022-11-15T01:04:15;101071.56;;;5.37;100.00
11856;BME280;5987;53.140;8.904;2022-11-15T01:07:19;101064.81;;;5.20;100.00
11856;BME280;5987;53.140;8.904;2022-11-15T01:10:23;101065.59;;;5.28;100.00
11856;BME280;5987;53.140;8.904;2022-11-15T01:13:31;101064.03;;;5.10;100.00
11856;BME280;5987;53.140;8.904;2022-11-15T01:16:35;101072.72;;;5.12;100.00
11856;BME280;5987;53.140;8.904;2022-11-15T01:19:40;101067.56;;;5.09;100.00
11856;BME280;5987;53.140;8.904;2022-11-15T01:22:43;101062.38;;;5.08;100.00
11856;BME280;5987;53.140;8.904;2022-11-15T01:25:47;101061.50;;;5.06;100.00
11856;BME280;5987;53.140;8.904;2022-11-15T01:28:51;101055.41;;;5.07;100.00
11856;BME280;5987;53.140;8.904;2022-11-15T01:31:55;101054.63;;;4.98;100.00
11856;BME280;5987;53.140;8.904;2022-11-15T01:35:00;101048.53;;;5.01;100.00
11856;BME280;5987;53.140;8.904;2022-11-15T01:38:03;101046.88;;;4.94;100.00
11856;BME280;5987;53.140;8.904;2022-11-15T01:41:14;101050.34;;;4.93;100.00
11856;BME280;5987;53.140;8.904;2022-11-15T01:44:44;101041.81;;;4.80;100.00
11856;BME280;5987;53.140;8.904;2022-11-15T01:47:53;101039.25;;;4.77;100.00
11856;BME280;5987;53.140;8.904;2022-11-15T01:51:00;101033.19;;;4.75;100.00
11856;BME280;5987;53.140;8.904;2022-11-15T01:54:08;101013.28;;;4.71;100.00
11856;BME280;5987;53.140;8.904;2022-11-15T01:57:13;101015.91;;;4.68;100.00
11856;BME280;5987;53.140;8.904;2022-11-15T02:00:17;101015.03;;;4.69;100.00
11856;BME280;5987;53.140;8.904;2022-11-15T02:03:28;101011.63;;;4.63;100.00
11856;BME280;5987;53.140;8.904;2022-11-15T02:06:37;101011.63;;;4.62;100.00
11856;BME280;5987;53.140;8.904;2022-11-15T02:09:42;101002.16;;;4.56;100.00
11856;BME280;5987;53.140;8.904;2022-11-15T02:12:47;101001.28;;;4.54;100.00
11856;BME280;5987;53.140;8.904;2022-11-15T02:16:02;101007.34;;;4.56;100.00
11856;BME280;5987;53.140;8.904;2022-11-15T02:19:28;101010.75;;;4.64;100.00
11856;BME280;5987;53.140;8.904;2022-11-15T02:22:57;101015.00;;;4.73;100.00
11856;BME280;5987;53.140;8.904;2022-11-15T02:30:30;101013.13;;;4.86;100.00
11856;BME280;5987;53.140;8.904;2022-11-15T02:33:43;101016.56;;;4.91;100.00
11856;BME280;5987;53.140;8.904;2022-11-15T02:37:02;101006.06;;;4.97;100.00
11856;BME280;5987;53.140;8.904;2022-11-15T02:40:17;101001.66;;;5.04;100.00
11856;BME280;5987;53.140;8.904;2022-11-15T02:43:36;100997.25;;;5.11;100.00
11856;BME280;5987;53.140;8.904;2022-11-15T02:47:04;100986.72;;;5.20;100.00
11856;BME280;5987;53.140;8.904;2022-11-15T02:50:20;100981.50;;;5.23;100.00
11856;BME280;5987;53.140;8.904;2022-11-15T02:53:25;100998.75;;;5.30;100.00
11856;BME280;5987;53.140;8.904;2022-11-15T02:56:29;101001.28;;;5.37;100.00
11856;BME280;5987;53.140;8.904;2022-11-15T03:00:01;100998.63;;;5.40;100.00
11856;BME280;5987;53.140;8.904;2022-11-15T03:03:29;100998.56;;;5.46;100.00
11856;BME280;5987;53.140;8.904;2022-11-15T03:06:46;100995.03;;;5.52;100.00
11856;BME280;5987;53.140;8.904;2022-11-15T03:10:03;100987.97;;;5.58;100.00
11856;BME280;5987;53.140;8.904;2022-11-15T03:13:21;101000.03;;;5.65;100.00
11856;BME280;5987;53.140;8.904;2022-11-15T03:16:35;100991.31;;;5.66;100.00
11856;BME280;5987;53.140;8.904;2022-11-15T03:19:46;100986.06;;;5.73;100.00
11856;BME280;5987;53.140;8.904;2022-11-15T03:22:52;100979.03;;;5.76;100.00
11856;BME280;5987;53.140;8.904;2022-11-15T03:25:59;100980.75;;;5.79;100.00
11856;BME280;5987;53.140;8.904;2022-11-15T03:29:07;100979.75;;;5.86;100.00
11856;BME280;5987;53.140;8.904;2022-11-15T03:32:16;100986.69;;;5.89;100.00
11856;BME280;5987;53.140;8.904;2022-11-15T03:35:25;100980.56;;;5.91;100.00
11856;BME280;5987;53.140;8.904;2022-11-15T03:38:32;100982.22;;;5.97;100.00
11856;BME280;5987;53.140;8.904;2022-11-15T03:41:46;100975.25;;;5.99;100.00
11856;BME280;5987;53.140;8.904;2022-11-15T03:44:58;100963.00;;;6.06;100.00
11856;BME280;5987;53.140;8.904;2022-11-15T03:48:13;100962.91;;;6.10;100.00
11856;BME280;5987;53.140;8.904;2022-11-15T03:51:19;100973.28;;;6.15;100.00
11856;BME280;5987;53.140;8.904;2022-11-15T03:54:24;100967.06;;;6.22;100.00
11856;BME280;5987;53.140;8.904;2022-11-15T03:57:27;100960.06;;;6.24;100.00
11856;BME280;5987;53.140;8.904;2022-11-15T04:00:31;100962.59;;;6.30;100.00
11856;BME280;5987;53.140;8.904;2022-11-15T04:03:35;100955.63;;;6.31;100.00
11856;BME280;5987;53.140;8.904;2022-11-15T04:06:40;100959.06;;;6.34;100.00
11856;BME280;5987;53.140;8.904;2022-11-15T04:09:44;100960.59;;;6.45;100.00
11856;BME280;5987;53.140;8.904;2022-11-15T04:13:05;100951.00;;;6.45;100.00
11856;BME280;5987;53.140;8.904;2022-11-15T04:16:09;100952.63;;;6.52;100.00
11856;BME280;5987;53.140;8.904;2022-11-15T04:19:12;100954.25;;;6.60;100.00
11856;BME280;5987;53.140;8.904;2022-11-15T04:22:35;100955.03;;;6.63;100.00
11856;BME280;5987;53.140;8.904;2022-11-15T04:26:00;100950.56;;;6.70;100.00
11856;BME280;5987;53.140;8.904;2022-11-15T04:29:04;100957.53;;;6.71;100.00
11856;BME280;5987;53.140;8.904;2022-11-15T04:32:25;100965.31;;;6.73;100.00
11856;BME280;5987;53.140;8.904;2022-11-15T04:35:30;100962.75;;;6.71;100.00
11856;BME280;5987;53.140;8.904;2022-11-15T04:38:36;100959.19;;;6.75;100.00
11856;BME280;5987;53.140;8.904;2022-11-15T04:41:39;100970.44;;;6.77;100.00
11856;BME280;5987;53.140;8.904;2022-11-15T04:44:43;100963.38;;;6.84;100.00
11856;BME280;5987;53.140;8.904;2022-11-15T04:47:47;100962.47;;;6.83;100.00
11856;BME280;5987;53.140;8.904;2022-11-15T04:50:51;100962.44;;;6.86;100.00
11856;BME280;5987;53.140;8.904;2022-11-15T04:53:56;100958.81;;;6.94;100.00
11856;BME280;5987;53.140;8.904;2022-11-15T04:56:59;100959.75;;;6.91;100.00
11856;BME280;5987;53.140;8.904;2022-11-15T05:00:07;100950.94;;;6.97;100.00
11856;BME280;5987;53.140;8.904;2022-11-15T05:03:11;100954.22;;;7.07;100.00
11856;BME280;5987;53.140;8.904;2022-11-15T05:06:32;100954.13;;;7.11;100.00
11856;BME280;5987;53.140;8.904;2022-11-15T05:09:37;100962.69;;;7.18;100.00
11856;BME280;5987;53.140;8.904;2022-11-15T05:12:41;100957.28;;;7.26;100.00
11856;BME280;5987;53.140;8.904;2022-11-15T05:15:46;100958.03;;;7.32;100.00
11856;BME280;5987;53.140;8.904;2022-11-15T05:18:51;100957.84;;;7.42;100.00
11856;BME280;5987;53.140;8.904;2022-11-15T05:21:55;100949.84;;;7.48;100.00
11856;BME280;5987;53.140;8.904;2022-11-15T05:25:00;100956.66;;;7.55;100.00
11856;BME280;5987;53.140;8.904;2022-11-15T05:28:04;100942.72;;;7.56;100.00
11856;BME280;5987;53.140;8.904;2022-11-15T05:31:10;100940.97;;;7.55;100.00
11856;BME280;5987;53.140;8.904;2022-11-15T05:34:14;100945.97;;;7.66;100.00
11856;BME280;5987;53.140;8.904;2022-11-15T05:37:19;100948.69;;;7.61;100.00
11856;BME280;5987;53.140;8.904;2022-11-15T05:40:24;100950.41;;;7.62;100.00
11856;BME280;5987;53.140;8.904;2022-11-15T05:43:33;100944.22;;;7.66;100.00
11856;BME280;5987;53.140;8.904;2022-11-15T05:46:40;100937.97;;;7.73;100.00
11856;BME280;5987;53.140;8.904;2022-11-15T05:49:47;100934.38;;;7.78;100.00
11856;BME280;5987;53.140;8.904;2022-11-15T05:53:04;100943.84;;;7.83;100.00
11856;BME280;5987;53.140;8.904;2022-11-15T05:56:14;100929.13;;;7.78;100.00
11856;BME280;5987;53.140;8.904;2022-11-15T05:59:18;100932.66;;;7.77;100.00
11856;BME280;5987;53.140;8.904;2022-11-15T06:02:23;100934.16;;;7.87;100.00
11856;BME280;5987;53.140;8.904;2022-11-15T06:05:26;100929.78;;;7.89;100.00
11856;BME280;5987;53.140;8.904;2022-11-15T06:08:30;100947.06;;;7.93;100.00
11856;BME280;5987;53.140;8.904;2022-11-15T06:11:35;100948.97;;;7.88;100.00
11856;BME280;5987;53.140;8.904;2022-11-15T06:14:40;100948.78;;;7.94;100.00
11856;BME280;5987;53.140;8.904;2022-11-15T06:17:43;100947.84;;;7.98;100.00
11856;BME280;5987;53.140;8.904;2022-11-15T06:20:47;100946.91;;;8.01;100.00
11856;BME280;5987;53.140;8.904;2022-11-15T06:23:54;100944.22;;;8.04;100.00
11856;BME280;5987;53.140;8.904;2022-11-15T06:27:04;100949.41;;;8.05;100.00
11856;BME280;5987;53.140;8.904;2022-11-15T06:30:09;100951.16;;;8.05;100.00
11856;BME280;5987;53.140;8.904;2022-11-15T06:33:13;100952.88;;;8.06;100.00
11856;BME280;5987;53.140;8.904;2022-11-15T06:36:17;100955.34;;;8.12;100.00
11856;BME280;5987;53.140;8.904;2022-11-15T06:39:21;100954.44;;;8.13;100.00
11856;BME280;5987;53.140;8.904;2022-11-15T06:42:26;100956.09;;;8.17;100.00
11856;BME280;5987;53.140;8.904;2022-11-15T06:45:30;100950.88;;;8.17;100.00
11856;BME280;5987;53.140;8.904;2022-11-15T06:48:35;100964.84;;;8.16;100.00
11856;BME280;5987;53.140;8.904;2022-11-15T06:51:39;100953.28;;;8.25;100.00
11856;BME280;5987;53.140;8.904;2022-11-15T06:54:42;100959.47;;;8.21;100.00
11856;BME280;5987;53.140;8.904;2022-11-15T06:57:49;100958.50;;;8.25;100.00
11856;BME280;5987;53.140;8.904;2022-11-15T07:00:53;100968.84;;;8.31;100.00
11856;BME280;5987;53.140;8.904;2022-11-15T07:03:57;100968.88;;;8.28;100.00
11856;BME280;5987;53.140;8.904;2022-11-15T07:07:01;100960.22;;;8.26;100.00
11856;BME280;5987;53.140;8.904;2022-11-15T07:10:07;100967.88;;;8.34;100.00
11856;BME280;5987;53.140;8.904;2022-11-15T07:13:12;100974.81;;;8.35;100.00
11856;BME280;5987;53.140;8.904;2022-11-15T07:16:16;100971.31;;;8.36;100.00
11856;BME280;5987;53.140;8.904;2022-11-15T07:19:19;100973.81;;;8.40;100.00
11856;BME280;5987;53.140;8.904;2022-11-15T07:22:24;100971.97;;;8.46;100.00
11856;BME280;5987;53.140;8.904;2022-11-15T07:25:28;100974.66;;;8.43;100.00
11856;BME280;5987;53.140;8.904;2022-11-15T07:28:34;100965.91;;;8.42;100.00
11856;BME280;5987;53.140;8.904;2022-11-15T07:31:38;100966.69;;;8.47;100.00
11856;BME280;5987;53.140;8.904;2022-11-15T07:34:42;100972.00;;;8.44;100.00
11856;BME280;5987;53.140;8.904;2022-11-15T07:37:54;100973.81;;;8.40;100.00
11856;BME280;5987;53.140;8.904;2022-11-15T07:41:00;100966.84;;;8.39;100.00
11856;BME280;5987;53.140;8.904;2022-11-15T07:44:06;100969.47;;;8.39;100.00
11856;BME280;5987;53.140;8.904;2022-11-15T07:47:09;100980.63;;;8.48;100.00
11856;BME280;5987;53.140;8.904;2022-11-15T07:50:13;100964.84;;;8.52;100.00
11856;BME280;5987;53.140;8.904;2022-11-15T07:53:17;100964.84;;;8.52;100.00
11856;BME280;5987;53.140;8.904;2022-11-15T07:56:21;100966.31;;;8.63;100.00
11856;BME280;5987;53.140;8.904;2022-11-15T07:59:26;100959.06;;;8.72;100.00
11856;BME280;5987;53.140;8.904;2022-11-15T08:02:30;100951.78;;;8.84;100.00
11856;BME280;5987;53.140;8.904;2022-11-15T08:05:37;100963.59;;;8.97;100.00
11856;BME280;5987;53.140;8.904;2022-11-15T08:08:41;100961.53;;;9.10;100.00
11856;BME280;5987;53.140;8.904;2022-11-15T08:11:44;100965.50;;;9.23;100.00
11856;BME280;5987;53.140;8.904;2022-11-15T08:14:49;100961.03;;;9.27;100.00
11856;BME280;5987;53.140;8.904;2022-11-15T08:17:55;100966.13;;;9.32;100.00
11856;BME280;5987;53.140;8.904;2022-11-15T08:21:00;100974.66;;;9.38;100.00
11856;BME280;5987;53.140;8.904;2022-11-15T08:24:05;100963.88;;;9.48;100.00
11856;BME280;5987;53.140;8.904;2022-11-15T08:27:09;100967.78;;;9.64;100.00
11856;BME280;5987;53.140;8.904;2022-11-15T08:30:19;100962.38;;;9.69;100.00
11856;BME280;5987;53.140;8.904;2022-11-15T08:33:22;100955.19;;;9.75;100.00
11856;BME280;5987;53.140;8.904;2022-11-15T08:36:26;100966.13;;;9.88;100.00
11856;BME280;5987;53.140;8.904;2022-11-15T08:39:42;100971.06;;;9.99;100.00
11856;BME280;5987;53.140;8.904;2022-11-15T08:42:47;100970.03;;;10.03;100.00
11856;BME280;5987;53.140;8.904;2022-11-15T08:45:52;100969.09;;;10.06;100.00
11856;BME280;5987;53.140;8.904;2022-11-15T08:48:58;100961.13;;;10.09;100.00
11856;BME280;5987;53.140;8.904;2022-11-15T08:52:02;100967.94;;;10.15;100.00
11856;BME280;5987;53.140;8.904;2022-11-15T08:55:07;100964.34;;;10.17;100.00
11856;BME280;5987;53.140;8.904;2022-11-15T08:58:11;100965.81;;;10.26;100.00
11856;BME280;5987;53.140;8.904;2022-11-15T09:01:18;100959.84;;;10.21;100.00
11856;BME280;5987;53.140;8.904;2022-11-15T09:04:22;100957.81;;;10.29;100.00
11856;BME280;5987;53.140;8.904;2022-11-15T09:07:27;100962.69;;;10.41;100.00
11856;BME280;5987;53.140;8.904;2022-11-15T09:10:32;100958.59;;;10.59;100.00
11856;BME280;5987;53.140;8.904;2022-11-15T09:13:36;100951.38;;;10.64;100.00
11856;BME280;5987;53.140;8.904;2022-11-15T09:16:41;100955.53;;;10.72;100.00
11856;BME280;5987;53.140;8.904;2022-11-15T09:19:45;100951.25;;;10.69;100.00
11856;BME280;5987;53.140;8.904;2022-11-15T09:22:48;100951.88;;;10.76;100.00
11856;BME280;5987;53.140;8.904;2022-11-15T09:25:58;100958.94;;;10.74;100.00
11856;BME280;5987;53.140;8.904;2022-11-15T09:29:02;100952.50;;;10.82;100.00
11856;BME280;5987;53.140;8.904;2022-11-15T09:32:07;100962.75;;;10.90;100.00
11856;BME280;5987;53.140;8.904;2022-11-15T09:35:11;100964.69;;;10.85;100.00
11856;BME280;5987;53.140;8.904;2022-11-15T09:38:15;100968.59;;;10.73;100.00
11856;BME280;5987;53.140;8.904;2022-11-15T09:41:56;100963.34;;;10.73;100.00
11856;BME280;5987;53.140;8.904;2022-11-15T09:45:15;100963.66;;;10.64;100.00
11856;BME280;5987;53.140;8.904;2022-11-15T09:48:49;100956.69;;;10.63;100.00
11856;BME280;5987;53.140;8.904;2022-11-15T09:51:55;100952.44;;;10.59;100.00
11856;BME280;5987;53.140;8.904;2022-11-15T09:54:59;100956.75;;;10.61;100.00
11856;BME280;5987;53.140;8.904;2022-11-15T09:58:14;100947.78;;;10.67;100.00
11856;BME280;5987;53.140;8.904;2022-11-15T10:01:36;100947.59;;;10.73;100.00
11856;BME280;5987;53.140;8.904;2022-11-15T10:04:44;100938.47;;;10.84;100.00
11856;BME280;5987;53.140;8.904;2022-11-15T10:07:57;100937.91;;;10.99;100.00
11856;BME280;5987;53.140;8.904;2022-11-15T10:11:09;100938.88;;;11.20;100.00
11856;BME280;5987;53.140;8.904;2022-11-15T10:14:35;100928.81;;;11.31;100.00
11856;BME280;5987;53.140;8.904;2022-11-15T10:18:14;100933.09;;;11.34;100.00
11856;BME280;5987;53.140;8.904;2022-11-15T10:21:34;100918.00;;;11.61;100.00
11856;BME280;5987;53.140;8.904;2022-11-15T10:24:45;100910.94;;;11.84;100.00
11856;BME280;5987;53.140;8.904;2022-11-15T10:27:56;100909.63;;;11.96;100.00
11856;BME280;5987;53.140;8.904;2022-11-15T10:31:01;100905.91;;;12.01;100.00
11856;BME280;5987;53.140;8.904;2022-11-15T10:34:13;100900.28;;;12.09;100.00
11856;BME280;5987;53.140;8.904;2022-11-15T10:37:29;100892.78;;;12.21;100.00
11856;BME280;5987;53.140;8.904;2022-11-15T10:40:33;100894.06;;;12.12;100.00
11856;BME280;5987;53.140;8.904;2022-11-15T10:43:37;100880.09;;;12.30;100.00
11856;BME280;5987;53.140;8.904;2022-11-15T10:46:43;100880.44;;;12.23;100.00
11856;BME280;5987;53.140;8.904;2022-11-15T10:50:02;100879.66;;;12.00;100.00
11856;BME280;5987;53.140;8.904;2022-11-15T10:53:20;100871.31;;;11.89;100.00
11856;BME280;5987;53.140;8.904;2022-11-15T10:56:27;100869.88;;;11.81;100.00
11856;BME280;5987;53.140;8.904;2022-11-15T10:59:33;100866.63;;;11.97;100.00
11856;BME280;5987;53.140;8.904;2022-11-15T11:02:57;100860.19;;;12.04;100.00
11856;BME280;5987;53.140;8.904;2022-11-15T11:06:10;100855.97;;;12.00;100.00
11856;BME280;5987;53.140;8.904;2022-11-15T11:09:28;100850.50;;;12.25;100.00
11856;BME280;5987;53.140;8.904;2022-11-15T11:12:34;100847.06;;;12.44;100.00
11856;BME280;5987;53.140;8.904;2022-11-15T11:15:41;100850.53;;;12.44;100.00
11856;BME280;5987;53.140;8.904;2022-11-15T11:18:56;100838.78;;;12.51;100.00
11856;BME280;5987;53.140;8.904;2022-11-15T11:22:11;100836.53;;;12.63;100.00
11856;BME280;5987;53.140;8.904;2022-11-15T11:25:33;100831.47;;;12.58;100.00
11856;BME280;5987;53.140;8.904;2022-11-15T11:28:45;100837.72;;;12.56;100.00
11856;BME280;5987;53.140;8.904;2022-11-15T11:32:02;100824.63;;;12.54;100.00
11856;BME280;5987;53.140;8.904;2022-11-15T11:35:16;100831.94;;;12.87;100.00
11856;BME280;5987;53.140;8.904;2022-11-15T11:38:43;100821.38;;;12.68;100.00
11856;BME280;5987;53.140;8.904;2022-11-15T11:42:06;100822.72;;;12.58;100.00
11856;BME280;5987;53.140;8.904;2022-11-15T11:45:24;100827.06;;;12.78;100.00
11856;BME280;5987;53.140;8.904;2022-11-15T11:48:41;100813.91;;;12.78;100.00
11856;BME280;5987;53.140;8.904;2022-11-15T11:51:52;100813.25;;;12.92;100.00
11856;BME280;5987;53.140;8.904;2022-11-15T11:55:12;100804.66;;;12.69;100.00
11856;BME280;5987;53.140;8.904;2022-11-15T11:58:26;100803.78;;;12.68;100.00
11856;BME280;5987;53.140;8.904;2022-11-15T12:01:40;100809.47;;;12.78;100.00
11856;BME280;5987;53.140;8.904;2022-11-15T12:04:50;100808.41;;;12.82;100.00
11856;BME280;5987;53.140;8.904;2022-11-15T12:08:04;100813.41;;;12.89;100.00
11856;BME280;5987;53.140;8.904;2022-11-15T12:11:14;100806.44;;;13.07;100.00
11856;BME280;5987;53.140;8.904;2022-11-15T12:14:31;100801.34;;;13.02;100.00
11856;BME280;5987;53.140;8.904;2022-11-15T12:17:37;100795.34;;;13.17;100.00
11856;BME280;5987;53.140;8.904;2022-11-15T12:20:59;100795.66;;;12.92;100.00
11856;BME280;5987;53.140;8.904;2022-11-15T12:24:13;100788.81;;;13.07;100.00
11856;BME280;5987;53.140;8.904;2022-11-15T12:27:31;100787.66;;;13.13;100.00
11856;BME280;5987;53.140;8.904;2022-11-15T12:30:49;100794.16;;;13.06;100.00
11856;BME280;5987;53.140;8.904;2022-11-15T12:33:56;100787.47;;;12.98;100.00
11856;BME280;5987;53.140;8.904;2022-11-15T12:37:34;100782.38;;;12.95;100.00
11856;BME280;5987;53.140;8.904;2022-11-15T12:41:15;100769.88;;;12.99;100.00
11856;BME280;5987;53.140;8.904;2022-11-15T12:44:58;100759.47;;;12.96;100.00
11856;BME280;5987;53.140;8.904;2022-11-15T12:49:00;100763.34;;;12.89;100.00
11856;BME280;5987;53.140;8.904;2022-11-15T12:52:08;100763.50;;;12.85;100.00
11856;BME280;5987;53.140;8.904;2022-11-15T12:55:32;100757.72;;;12.77;100.00
11856;BME280;5987;53.140;8.904;2022-11-15T12:58:43;100752.66;;;12.92;100.00
11856;BME280;5987;53.140;8.904;2022-11-15T13:02:01;100747.69;;;12.85;100.00
11856;BME280;5987;53.140;8.904;2022-11-15T13:05:57;100747.22;;;12.95;100.00
11856;BME280;5987;53.140;8.904;2022-11-15T13:09:01;100733.28;;;12.93;100.00
11856;BME280;5987;53.140;8.904;2022-11-15T13:12:08;100736.41;;;13.01;100.00
11856;BME280;5987;53.140;8.904;2022-11-15T13:15:33;100737.09;;;13.04;100.00
11856;BME280;5987;53.140;8.904;2022-11-15T13:18:53;100729.91;;;13.08;100.00
11856;BME280;5987;53.140;8.904;2022-11-15T13:21:59;100732.06;;;13.17;100.00
11856;BME280;5987;53.140;8.904;2022-11-15T13:26:05;100725.72;;;13.21;100.00
11856;BME280;5987;53.140;8.904;2022-11-15T13:29:17;100717.97;;;13.18;100.00
11856;BME280;5987;53.140;8.904;2022-11-15T13:32:22;100721.00;;;13.11;100.00
11856;BME280;5987;53.140;8.904;2022-11-15T13:35:28;100721.88;;;12.92;100.00
11856;BME280;5987;53.140;8.904;2022-11-15T13:38:37;100722.50;;;12.80;100.00
11856;BME280;5987;53.140;8.904;2022-11-15T13:41:48;100727.03;;;12.76;100.00
11856;BME280;5987;53.140;8.904;2022-11-15T13:44:58;100728.59;;;12.80;100.00
11856;BME280;5987;53.140;8.904;2022-11-15T13:48:03;100719.91;;;12.78;100.00
11856;BME280;5987;53.140;8.904;2022-11-15T13:51:18;100728.59;;;12.80;100.00
11856;BME280;5987;53.140;8.904;2022-11-15T13:54:28;100723.25;;;12.82;100.00
11856;BME280;5987;53.140;8.904;2022-11-15T13:57:42;100724.25;;;12.79;100.00
11856;BME280;5987;53.140;8.904;2022-11-15T14:00:47;100722.19;;;12.67;100.00
11856;BME280;5987;53.140;8.904;2022-11-15T14:03:55;100712.69;;;12.64;100.00
11856;BME280;5987;53.140;8.904;2022-11-15T14:07:01;100712.81;;;12.61;100.00
11856;BME280;5987;53.140;8.904;2022-11-15T14:10:30;100704.69;;;12.66;100.00
11856;BME280;5987;53.140;8.904;2022-11-15T14:13:35;100710.31;;;12.77;100.00
11856;BME280;5987;53.140;8.904;2022-11-15T14:16:41;100714.19;;;12.87;100.00
11856;BME280;5987;53.140;8.904;2022-11-15T14:19:45;100711.06;;;12.79;100.00
11856;BME280;5987;53.140;8.904;2022-11-15T14:22:53;100710.59;;;12.71;100.00
11856;BME280;5987;53.140;8.904;2022-11-15T14:25:59;100702.25;;;12.61;100.00
11856;BME280;5987;53.140;8.904;2022-11-15T14:29:25;100697.03;;;12.42;100.00
11856;BME280;5987;53.140;8.904;2022-11-15T14:32:39;100701.50;;;12.40;100.00
11856;BME280;5987;53.140;8.904;2022-11-15T14:35:46;100695.72;;;12.32;100.00
11856;BME280;5987;53.140;8.904;2022-11-15T14:38:49;100699.00;;;12.37;100.00
11856;BME280;5987;53.140;8.904;2022-11-15T14:41:54;100698.00;;;12.21;100.00
11856;BME280;5987;53.140;8.904;2022-11-15T14:44:58;100690.63;;;12.10;100.00
11856;BME280;5987;53.140;8.904;2022-11-15T14:48:02;100696.34;;;11.99;100.00
11856;BME280;5987;53.140;8.904;2022-11-15T14:51:12;100705.50;;;11.90;100.00
11856;BME280;5987;53.140;8.904;2022-11-15T14:54:16;100703.53;;;11.75;100.00
11856;BME280;5987;53.140;8.904;2022-11-15T14:57:22;100694.47;;;11.61;100.00
11856;BME280;5987;53.140;8.904;2022-11-15T15:00:26;100698.13;;;11.57;100.00
11856;BME280;5987;53.140;8.904;2022-11-15T15:03:36;100696.91;;;11.45;100.00
11856;BME280;5987;53.140;8.904;2022-11-15T15:06:39;100702.03;;;11.28;100.00
11856;BME280;5987;53.140;8.904;2022-11-15T15:09:44;100687.56;;;11.18;100.00
11856;BME280;5987;53.140;8.904;2022-11-15T15:12:50;100692.47;;;11.05;100.00
11856;BME280;5987;53.140;8.904;2022-11-15T15:15:53;100696.19;;;10.99;100.00
11856;BME280;5987;53.140;8.904;2022-11-15T15:18:57;100684.38;;;10.89;100.00
11856;BME280;5987;53.140;8.904;2022-11-15T15:22:01;100688.03;;;10.85;100.00
11856;BME280;5987;53.140;8.904;2022-11-15T15:25:20;100689.25;;;10.76;100.00
11856;BME280;5987;53.140;8.904;2022-11-15T15:28:25;100686.78;;;10.71;100.00
11856;BME280;5987;53.140;8.904;2022-11-15T15:31:35;100682.00;;;10.60;100.00
11856;BME280;5987;53.140;8.904;2022-11-15T15:34:39;100687.41;;;10.56;100.00
11856;BME280;5987;53.140;8.904;2022-11-15T15:37:46;100688.94;;;10.39;100.00
11856;BME280;5987;53.140;8.904;2022-11-15T15:40:50;100689.31;;;10.28;100.00
11856;BME280;5987;53.140;8.904;2022-11-15T15:43:55;100684.19;;;10.25;100.00
11856;BME280;5987;53.140;8.904;2022-11-15T15:46:58;100684.19;;;10.25;100.00
11856;BME280;5987;53.140;8.904;2022-11-15T15:50:03;100690.84;;;10.10;100.00
11856;BME280;5987;53.140;8.904;2022-11-15T15:53:08;100688.47;;;10.04;100.00
11856;BME280;5987;53.140;8.904;2022-11-15T15:56:12;100686.81;;;10.02;100.00
11856;BME280;5987;53.140;8.904;2022-11-15T15:59:18;100675.72;;;9.93;100.00
11856;BME280;5987;53.140;8.904;2022-11-15T16:02:21;100659.66;;;9.79;100.00
11856;BME280;5987;53.140;8.904;2022-11-15T16:05:25;100660.81;;;9.70;100.00
11856;BME280;5987;53.140;8.904;2022-11-15T16:08:28;100673.25;;;9.65;100.00
11856;BME280;5987;53.140;8.904;2022-11-15T16:11:53;100676.19;;;9.56;100.00
11856;BME280;5987;53.140;8.904;2022-11-15T16:14:58;100669.28;;;9.53;100.00
11856;BME280;5987;53.140;8.904;2022-11-15T16:18:04;100662.31;;;9.54;100.00
11856;BME280;5987;53.140;8.904;2022-11-15T16:21:10;100657.72;;;9.59;100.00
11856;BME280;5987;53.140;8.904;2022-11-15T16:24:14;100658.06;;;9.50;100.00
11856;BME280;5987;53.140;8.904;2022-11-15T16:27:19;100657.13;;;9.52;100.00
11856;BME280;5987;53.140;8.904;2022-11-15T16:30:25;100645.63;;;9.55;100.00
11856;BME280;5987;53.140;8.904;2022-11-15T16:33:28;100642.28;;;9.51;100.00
11856;BME280;5987;53.140;8.904;2022-11-15T16:36:34;100629.19;;;9.51;100.00
11856;BME280;5987;53.140;8.904;2022-11-15T16:39:38;100636.75;;;9.59;100.00
11856;BME280;5987;53.140;8.904;2022-11-15T16:42:42;100628.22;;;9.54;100.00